Time;durP1;ratioP1;P1;durP2;ratioP2;P2;SDS_P1;SDS_P2;PMS_P1;PMS_P2;Temp;Humidity;BMP_temperature;BMP_pressure;BME280_temperature;BME280_humidity;BME280_pressure;Samples;Min_cycle;Max_cycle;Signal;HPM_P1;HPM_P2
2021/05/01 00:01:00;;;;;;;23.57;19.07;;;;;;;8.92;62.97;98522.34;124765;1101;64294;-79
2021/05/01 00:03:27;;;;;;;21.37;18.07;;;;;;;8.92;62.69;98517.02;124769;1096;64319;-79
2021/05/01 00:05:54;;;;;;;19.53;16.93;;;;;;;8.93;62.87;98513.44;124746;1101;64467;-78
2021/05/01 00:08:22;;;;;;;23.83;18.47;;;;;;;8.93;63.08;98518.75;124757;1101;64419;-78
2021/05/01 00:10:50;;;;;;;21.50;18.10;;;;;;;8.89;63.27;98518.09;124773;1101;64323;-79
2021/05/01 00:13:16;;;;;;;24.40;18.95;;;;;;;8.88;63.00;98523.52;124724;1096;64335;-79
2021/05/01 00:15:43;;;;;;;24.20;19.73;;;;;;;8.84;63.19;98528.17;124807;1101;64326;-78
2021/05/01 00:18:10;;;;;;;21.03;18.90;;;;;;;8.82;63.37;98531.88;124819;1095;64502;-79
2021/05/01 00:20:37;;;;;;;25.03;19.80;;;;;;;8.77;63.41;98534.88;124768;1096;64405;-79
2021/05/01 00:23:04;;;;;;;23.63;18.47;;;;;;;8.72;63.48;98537.83;124742;1101;64326;-79
2021/05/01 00:25:30;;;;;;;21.77;19.17;;;;;;;8.67;63.61;98536.44;124776;1101;64333;-79
2021/05/01 00:27:57;;;;;;;22.27;18.70;;;;;;;8.63;63.64;98542.89;124751;1096;64355;-80
2021/05/01 00:30:24;;;;;;;23.63;19.40;;;;;;;8.58;63.82;98537.88;124760;1101;64429;-78
2021/05/01 00:32:51;;;;;;;21.70;18.37;;;;;;;8.56;64.02;98545.13;124747;1101;64365;-79
2021/05/01 00:35:18;;;;;;;21.27;18.20;;;;;;;8.55;64.36;98540.73;124750;1096;64339;-79
2021/05/01 00:37:44;;;;;;;23.27;19.57;;;;;;;8.53;64.39;98539.98;124735;1101;64355;-79
2021/05/01 00:40:12;;;;;;;24.03;18.63;;;;;;;8.52;64.36;98540.95;124765;1096;64217;-79
2021/05/01 00:42:39;;;;;;;24.70;19.13;;;;;;;8.50;64.42;98533.06;124837;1095;64336;-80
2021/05/01 00:45:07;;;;;;;20.77;18.53;;;;;;;8.49;64.51;98531.38;124778;1101;64438;-79
2021/05/01 00:47:34;;;;;;;22.00;19.70;;;;;;;8.50;64.38;98529.56;124788;1096;64332;-79
2021/05/01 00:50:01;;;;;;;22.83;20.57;;;;;;;8.47;64.49;98524.46;124774;1101;64342;-78
2021/05/01 00:52:28;;;;;;;21.33;18.60;;;;;;;8.44;64.73;98514.05;124779;1101;64367;-79
2021/05/01 00:54:55;;;;;;;20.67;18.47;;;;;;;8.43;64.69;98523.83;124729;1101;64331;-79
2021/05/01 00:57:22;;;;;;;19.43;17.33;;;;;;;8.41;64.66;98516.91;124770;1101;64489;-78
2021/05/01 00:59:49;;;;;;;18.73;16.73;;;;;;;8.41;64.87;98514.25;124746;1096;64320;-79
2021/05/01 01:02:22;;;;;;;20.00;16.93;;;;;;;8.39;65.11;98511.69;124732;1096;64329;-78
2021/05/01 01:04:50;;;;;;;21.23;18.17;;;;;;;8.39;65.06;98514.34;124753;1096;64384;-80
2021/05/01 01:07:17;;;;;;;19.43;17.33;;;;;;;8.36;65.17;98507.39;124776;1101;64419;-79
2021/05/01 01:09:44;;;;;;;21.57;19.27;;;;;;;8.33;65.30;98504.10;124766;1095;64328;-80
2021/05/01 01:12:11;;;;;;;22.97;18.80;;;;;;;8.29;65.34;98514.09;124734;1101;64330;-79
2021/05/01 01:14:38;;;;;;;26.27;21.47;;;;;;;8.26;65.33;98516.91;124771;1101;64329;-79
2021/05/01 01:17:05;;;;;;;23.50;20.40;;;;;;;8.23;65.39;98527.73;124758;1101;64310;-78
2021/05/01 01:19:34;;;;;;;21.77;19.47;;;;;;;8.21;65.56;98532.28;124723;1101;64493;-79
2021/05/01 01:22:01;;;;;;;21.47;19.27;;;;;;;8.18;65.90;98529.83;124776;1101;64802;-79
2021/05/01 01:24:30;;;;;;;21.57;19.40;;;;;;;8.14;66.23;98537.16;124765;1101;64335;-80
2021/05/01 01:26:57;;;;;;;19.23;17.18;;;;;;;8.10;66.31;98527.67;124797;1101;64375;-80
2021/05/01 01:29:25;;;;;;;20.07;18.07;;;;;;;8.14;66.42;98526.53;124858;1101;64331;-80
2021/05/01 01:31:52;;;;;;;20.37;18.13;;;;;;;8.22;66.33;98517.23;124740;1101;64447;-78
2021/05/01 01:34:20;;;;;;;21.97;19.83;;;;;;;8.28;66.47;98515.02;124768;1096;64394;-79
2021/05/01 01:36:46;;;;;;;22.83;18.40;;;;;;;8.31;66.71;98506.84;124789;1096;64329;-79
2021/05/01 01:39:13;;;;;;;24.03;20.10;;;;;;;8.32;66.68;98508.56;124805;1096;64285;-79
2021/05/01 01:41:40;;;;;;;28.37;19.70;;;;;;;8.35;66.34;98524.30;124839;1101;64341;-82
2021/05/01 01:44:07;;;;;;;21.63;19.43;;;;;;;8.43;66.30;98521.17;124877;1101;64381;-79
2021/05/01 01:46:33;;;;;;;22.50;20.10;;;;;;;8.48;66.53;98515.56;124781;1101;64423;-80
2021/05/01 01:49:00;;;;;;;23.43;21.03;;;;;;;8.51;66.51;98504.73;124764;1096;64323;-81
2021/05/01 01:51:27;;;;;;;23.53;20.43;;;;;;;8.55;66.63;98504.41;124833;1101;64419;-81
2021/05/01 01:53:54;;;;;;;23.83;20.43;;;;;;;8.60;66.56;98505.91;124758;1095;64270;-79
2021/05/01 01:56:20;;;;;;;21.23;18.93;;;;;;;8.67;66.78;98513.38;124736;1095;64468;-81
2021/05/01 01:58:47;;;;;;;21.33;19.13;;;;;;;8.72;66.51;98508.61;124742;1096;64805;-80
2021/05/01 02:01:14;;;;;;;22.20;19.03;;;;;;;8.79;66.57;98515.22;124815;1096;64365;-78
2021/05/01 02:03:41;;;;;;;21.73;19.53;;;;;;;8.85;66.40;98518.42;124791;1101;64328;-79
2021/05/01 02:06:07;;;;;;;22.70;20.30;;;;;;;8.88;66.53;98512.89;124811;1101;64368;-81
2021/05/01 02:08:34;;;;;;;22.73;20.20;;;;;;;8.90;66.47;98516.27;124771;1096;64339;-79
2021/05/01 02:11:01;;;;;;;22.27;19.97;;;;;;;8.90;66.37;98509.17;124783;1095;64971;-78
2021/05/01 02:13:28;;;;;;;21.90;19.70;;;;;;;8.91;66.44;98499.39;124779;1101;64249;-78
2021/05/01 02:15:54;;;;;;;20.57;18.27;;;;;;;8.91;66.26;98513.52;124770;1096;64333;-79
2021/05/01 02:18:21;;;;;;;20.03;17.87;;;;;;;8.93;66.39;98506.30;124713;1101;64786;-78
2021/05/01 02:20:48;;;;;;;19.40;17.60;;;;;;;8.95;66.48;98499.09;124759;1101;64361;-79
2021/05/01 02:23:15;;;;;;;21.57;19.33;;;;;;;8.95;66.64;98496.42;124779;1101;64419;-78
2021/05/01 02:25:42;;;;;;;22.00;19.70;;;;;;;8.94;66.69;98496.52;124780;1096;64390;-79
2021/05/01 02:28:09;;;;;;;19.70;17.70;;;;;;;8.93;66.48;98510.77;124773;1101;64342;-78
2021/05/01 02:30:36;;;;;;;21.30;18.73;;;;;;;8.91;66.61;98507.36;124744;1096;64249;-79
2021/05/01 02:33:03;;;;;;;20.20;18.13;;;;;;;8.90;66.61;98495.89;124733;1101;64422;-77
2021/05/01 02:35:32;;;;;;;19.20;17.30;;;;;;;8.88;66.29;98496.95;124772;1096;64431;-79
2021/05/01 02:38:00;;;;;;;20.20;18.10;;;;;;;8.88;66.53;98499.61;124762;1101;64399;-77
2021/05/01 02:40:31;;;;;;;19.53;17.57;;;;;;;8.88;66.75;98496.95;124760;1101;64339;-79
2021/05/01 02:43:04;;;;;;;21.23;19.13;;;;;;;8.87;66.43;98497.88;124800;1096;64329;-79
2021/05/01 02:45:31;;;;;;;22.43;20.20;;;;;;;8.84;66.72;98493.63;124722;1101;64428;-82
2021/05/01 02:47:58;;;;;;;21.70;19.50;;;;;;;8.82;66.66;98495.56;124751;1101;64514;-77
2021/05/01 02:50:25;;;;;;;22.73;20.33;;;;;;;8.79;66.67;98499.28;124763;1101;64332;-79
2021/05/01 02:52:52;;;;;;;23.50;21.03;;;;;;;8.79;66.60;98517.00;124761;1101;64329;-79
2021/05/01 02:55:19;;;;;;;22.20;18.47;;;;;;;8.77;66.72;98506.49;124754;1096;64336;-78
2021/05/01 02:57:48;;;;;;;21.60;18.90;;;;;;;8.76;66.62;98510.09;124776;1096;64418;-80
2021/05/01 03:00:18;;;;;;;22.67;18.83;;;;;;;8.77;67.05;98517.13;124790;1096;64324;-79
2021/05/01 03:02:45;;;;;;;23.55;20.10;;;;;;;8.77;66.95;98517.13;124807;1101;64277;-78
2021/05/01 03:05:14;;;;;;;21.87;19.00;;;;;;;8.77;67.05;98516.27;124743;1096;64419;-79
2021/05/01 03:07:42;;;;;;;22.90;20.70;;;;;;;8.75;67.10;98520.83;124784;1101;64432;-79
2021/05/01 03:10:18;;;;;;;23.27;20.87;;;;;;;8.74;67.25;98504.05;124773;1101;64250;-78
2021/05/01 03:12:45;;;;;;;23.70;20.20;;;;;;;8.68;68.17;98496.47;124786;1101;64464;-80
2021/05/01 03:15:14;;;;;;;24.00;21.50;;;;;;;8.62;68.29;98506.67;124749;1096;64355;-79
2021/05/01 03:17:41;;;;;;;22.70;20.25;;;;;;;8.55;68.47;98512.38;124750;1101;64339;-81
2021/05/01 03:20:10;;;;;;;23.73;20.47;;;;;;;8.52;68.40;98511.73;124733;1096;64342;-78
2021/05/01 03:22:38;;;;;;;24.30;21.80;;;;;;;8.52;68.63;98519.70;124843;1096;64339;-79
2021/05/01 03:25:06;;;;;;;23.47;20.97;;;;;;;8.51;69.46;98515.36;124824;1101;64493;-77
2021/05/01 03:27:34;;;;;;;26.33;23.53;;;;;;;8.46;69.43;98520.96;124845;1096;64367;-81
2021/05/01 03:30:02;;;;;;;27.90;25.00;;;;;;;8.40;69.49;98518.72;124871;1101;64330;-79
2021/05/01 03:32:29;;;;;;;27.93;24.30;;;;;;;8.36;70.30;98517.17;124769;1101;64278;-80
2021/05/01 03:34:56;;;;;;;28.05;25.05;;;;;;;8.30;70.53;98499.00;124752;1096;64333;-79
2021/05/01 03:37:22;;;;;;;26.60;23.30;;;;;;;8.24;71.05;98494.07;124809;1096;64326;-77
2021/05/01 03:39:49;;;;;;;26.93;24.17;;;;;;;8.19;71.40;98488.21;124870;1096;64336;-75
2021/05/01 03:42:17;;;;;;;28.45;25.00;;;;;;;8.18;71.64;98489.17;124846;1096;64288;-76
2021/05/01 03:44:43;;;;;;;27.83;24.63;;;;;;;8.13;72.10;98513.35;124894;1096;64339;-75
2021/05/01 03:47:10;;;;;;;29.40;26.20;;;;;;;8.08;72.22;98513.67;124850;1095;64275;-75
2021/05/01 03:49:37;;;;;;;29.63;26.50;;;;;;;8.04;73.01;98508.66;124836;1101;64579;-75
2021/05/01 03:52:04;;;;;;;29.50;26.60;;;;;;;7.99;73.07;98513.41;124728;1101;64360;-76
2021/05/01 03:54:31;;;;;;;31.17;26.70;;;;;;;7.95;73.10;98525.99;124835;1096;64355;-75
2021/05/01 03:56:58;;;;;;;29.43;26.10;;;;;;;7.95;73.39;98520.69;124821;1096;64342;-75
2021/05/01 03:59:25;;;;;;;26.20;23.50;;;;;;;7.92;73.73;98515.58;124732;1101;64323;-76
2021/05/01 04:01:52;;;;;;;28.10;25.10;;;;;;;7.89;73.93;98516.63;124749;1101;64939;-75
2021/05/01 04:04:19;;;;;;;25.20;22.50;;;;;;;7.88;74.32;98516.74;124733;1096;64334;-76
2021/05/01 04:06:47;;;;;;;27.53;24.60;;;;;;;7.85;74.87;98516.94;124741;1101;64339;-76
2021/05/01 04:09:13;;;;;;;28.80;25.83;;;;;;;7.81;74.73;98491.55;124738;1101;64348;-77
2021/05/01 04:11:40;;;;;;;30.70;26.93;;;;;;;7.75;75.68;98491.95;124734;1101;64389;-77
2021/05/01 04:14:07;;;;;;;31.00;27.77;;;;;;;7.68;75.84;98489.66;124747;1096;64410;-76
2021/05/01 04:16:35;;;;;;;28.10;25.17;;;;;;;7.64;76.41;98503.23;124729;1101;64348;-76
2021/05/01 04:19:02;;;;;;;31.10;26.10;;;;;;;7.60;76.24;98493.75;124738;1096;64364;-76
2021/05/01 04:21:28;;;;;;;29.70;25.70;;;;;;;7.58;76.48;98475.30;124767;1096;64281;-75
2021/05/01 04:23:55;;;;;;;27.90;24.83;;;;;;;7.56;77.59;98474.55;124732;1101;64384;-76
2021/05/01 04:26:22;;;;;;;27.30;23.73;;;;;;;7.55;77.67;98504.64;124743;1096;64305;-77
2021/05/01 04:28:50;;;;;;;25.05;22.50;;;;;;;7.57;76.86;98512.52;124747;1101;64275;-77
2021/05/01 04:31:17;;;;;;;25.77;23.13;;;;;;;7.59;76.59;98516.77;124833;1101;64430;-75
2021/05/01 04:33:44;;;;;;;27.17;24.33;;;;;;;7.62;77.01;98502.47;124757;1096;64345;-77
2021/05/01 04:36:11;;;;;;;27.27;24.47;;;;;;;7.59;77.44;98506.17;124845;1096;64275;-78
2021/05/01 04:38:37;;;;;;;26.70;23.80;;;;;;;7.59;77.02;98507.97;124793;1101;64355;-76
2021/05/01 04:41:04;;;;;;;23.40;21.10;;;;;;;7.60;77.77;98507.86;124735;1096;64431;-77
2021/05/01 04:43:32;;;;;;;27.00;24.20;;;;;;;7.61;78.12;98498.09;124769;1101;64262;-80
2021/05/01 04:45:59;;;;;;;28.93;25.83;;;;;;;7.59;78.67;98486.76;124744;1096;64422;-76
2021/05/01 04:48:29;;;;;;;28.27;25.33;;;;;;;7.56;78.60;98481.66;124761;1096;64250;-75
2021/05/01 04:50:56;;;;;;;29.00;24.65;;;;;;;7.48;78.89;98464.42;124795;1101;64360;-76
2021/05/01 04:53:24;;;;;;;27.00;24.07;;;;;;;7.41;79.94;98463.09;124737;1101;64278;-75
2021/05/01 04:55:51;;;;;;;27.70;24.80;;;;;;;7.36;79.57;98472.28;124777;1096;64312;-76
2021/05/01 04:58:17;;;;;;;26.35;23.70;;;;;;;7.33;79.49;98473.32;124749;1096;64677;-76
2021/05/01 05:00:44;;;;;;;27.40;24.50;;;;;;;7.33;79.42;98464.52;124746;1096;64380;-75
2021/05/01 05:03:11;;;;;;;27.30;24.43;;;;;;;7.31;79.97;98454.00;124775;1101;64399;-76
2021/05/01 05:05:38;;;;;;;26.73;23.93;;;;;;;7.34;80.40;98466.22;124750;1096;64348;-76
2021/05/01 05:08:05;;;;;;;28.77;25.67;;;;;;;7.36;79.47;98480.23;124749;1096;64374;-75
2021/05/01 05:10:32;;;;;;;28.00;25.20;;;;;;;7.42;79.54;98485.14;124751;1101;64329;-76
2021/05/01 05:12:59;;;;;;;27.67;24.77;;;;;;;7.47;79.75;98483.91;124745;1101;64345;-75
2021/05/01 05:15:26;;;;;;;28.33;25.43;;;;;;;7.50;79.67;98468.76;124760;1101;64412;-76
2021/05/01 05:17:53;;;;;;;27.13;24.43;;;;;;;7.53;80.49;98447.35;124760;1096;64788;-76
2021/05/01 05:20:20;;;;;;;30.65;25.70;;;;;;;7.51;80.40;98463.38;124777;1101;64358;-76
2021/05/01 05:22:47;;;;;;;25.80;23.13;;;;;;;7.53;81.13;98464.14;124764;1101;64303;-76
2021/05/01 05:25:14;;;;;;;27.17;24.27;;;;;;;7.53;80.08;98473.87;124719;1101;64303;-76
2021/05/01 05:27:40;;;;;;;27.50;24.73;;;;;;;7.54;80.36;98478.23;124788;1096;64310;-76
2021/05/01 05:30:08;;;;;;;28.33;25.43;;;;;;;7.61;80.07;98482.19;124766;1096;64336;-75
2021/05/01 05:32:35;;;;;;;27.80;24.87;;;;;;;7.70;80.17;98492.23;124742;1101;64415;-76
2021/05/01 05:35:03;;;;;;;27.17;24.30;;;;;;;7.80;80.07;98490.70;124744;1096;64262;-76
2021/05/01 05:37:29;;;;;;;28.00;24.83;;;;;;;7.93;80.00;98488.12;124789;1101;64374;-76
2021/05/01 05:39:57;;;;;;;28.20;25.30;;;;;;;8.03;79.37;98496.31;124768;1096;64323;-76
2021/05/01 05:42:24;;;;;;;27.23;24.43;;;;;;;8.12;79.41;98503.70;124753;1101;64355;-77
2021/05/01 05:44:51;;;;;;;27.00;24.10;;;;;;;8.19;79.30;98490.86;124759;1096;64342;-77
2021/05/01 05:47:19;;;;;;;30.00;26.73;;;;;;;8.26;79.11;98494.83;124758;1101;64330;-78
2021/05/01 05:49:47;;;;;;;28.40;25.40;;;;;;;8.23;78.77;98484.42;124766;1095;64480;-76
2021/05/01 05:52:14;;;;;;;29.45;26.45;;;;;;;8.21;78.74;98494.28;124733;1101;64400;-78
2021/05/01 05:54:41;;;;;;;26.65;23.85;;;;;;;8.19;78.85;98483.78;124771;1101;64336;-78
2021/05/01 05:57:11;;;;;;;26.77;24.07;;;;;;;8.19;78.55;98496.17;124761;1101;64345;-77
2021/05/01 05:59:38;;;;;;;26.93;24.23;;;;;;;8.21;78.38;98502.23;124799;1096;64278;-77
2021/05/01 06:02:06;;;;;;;27.57;24.87;;;;;;;8.28;78.78;98511.52;124857;1096;64477;-76
2021/05/01 06:04:44;;;;;;;32.05;23.70;;;;;;;8.25;78.27;98522.34;124857;1096;64328;-76
2021/05/01 06:07:17;;;;;;;35.70;31.20;;;;;;;8.26;78.79;98518.72;124828;1101;64661;-76
2021/05/01 06:09:45;;;;;;;45.97;36.87;;;;;;;8.25;78.72;98511.72;124893;1101;64336;-76
2021/05/01 06:12:12;;;;;;;30.03;26.93;;;;;;;8.21;78.71;98500.43;124786;1101;64246;-77
2021/05/01 06:14:43;;;;;;;27.43;24.63;;;;;;;8.18;78.79;98510.41;124795;1096;64515;-76
2021/05/01 06:17:11;;;;;;;29.57;26.73;;;;;;;8.15;79.16;98498.19;124850;1101;64461;-76
2021/05/01 06:19:40;;;;;;;31.63;28.33;;;;;;;8.13;79.01;98476.20;124884;1096;64259;-76
2021/05/01 06:22:08;;;;;;;31.00;27.70;;;;;;;8.09;79.22;98472.90;124906;1096;64326;-77
2021/05/01 06:24:38;;;;;;;31.50;28.23;;;;;;;8.00;79.74;98475.29;124857;1101;64323;-76
2021/05/01 06:27:05;;;;;;;28.43;25.33;;;;;;;7.91;79.68;98474.94;124790;1096;64508;-75
2021/05/01 06:29:35;;;;;;;29.63;26.60;;;;;;;7.87;79.81;98468.14;124741;1096;64307;-77
2021/05/01 06:32:05;;;;;;;29.80;26.80;;;;;;;7.83;79.88;98471.93;124730;1101;64342;-77
2021/05/01 06:34:33;;;;;;;29.73;26.80;;;;;;;7.84;79.98;98470.13;124804;1096;64333;-76
2021/05/01 06:37:02;;;;;;;30.87;27.77;;;;;;;7.86;79.92;98469.07;124894;1101;64332;-76
2021/05/01 06:39:33;;;;;;;30.77;27.57;;;;;;;7.96;80.25;98468.50;124856;1101;64467;-76
2021/05/01 06:42:04;;;;;;;30.57;27.43;;;;;;;8.01;79.94;98475.20;124813;1101;64454;-76
2021/05/01 06:44:38;;;;;;;31.20;28.00;;;;;;;8.13;80.05;98485.00;124782;1101;64336;-77
2021/05/01 06:47:05;;;;;;;30.57;27.47;;;;;;;8.28;79.88;98479.66;124764;1101;64286;-76
2021/05/01 06:49:51;;;;;;;30.20;27.10;;;;;;;8.38;79.25;98474.60;124786;1101;64285;-76
2021/05/01 06:52:18;;;;;;;29.20;26.30;;;;;;;8.45;79.06;98486.53;124748;1101;64327;-77
2021/05/01 06:54:48;;;;;;;32.17;28.87;;;;;;;8.48;78.93;98500.47;124769;1096;64335;-76
2021/05/01 06:57:16;;;;;;;33.05;29.78;;;;;;;8.48;78.87;98505.78;124799;1101;64328;-77
2021/05/01 06:59:43;;;;;;;32.30;28.97;;;;;;;8.53;79.28;98508.98;124790;1096;64249;-76
2021/05/01 07:02:11;;;;;;;29.30;26.30;;;;;;;8.59;79.49;98497.10;124868;1096;64327;-77
2021/05/01 07:04:38;;;;;;;31.50;26.93;;;;;;;8.61;78.72;98494.33;124762;1101;64330;-77
2021/05/01 07:07:07;;;;;;;27.93;25.17;;;;;;;8.64;78.70;98510.93;124791;1096;64339;-78
2021/05/01 07:09:36;;;;;;;27.80;25.00;;;;;;;8.60;78.42;98516.54;124805;1101;64303;-77
2021/05/01 07:12:04;;;;;;;29.93;26.93;;;;;;;8.59;78.42;98523.66;124894;1096;64339;-80
2021/05/01 07:14:32;;;;;;;30.47;27.30;;;;;;;8.59;78.63;98530.78;124837;1101;64368;-80
2021/05/01 07:17:05;;;;;;;31.30;28.20;;;;;;;8.53;78.61;98529.36;124879;1096;64374;-79
2021/05/01 07:19:33;;;;;;;31.97;28.57;;;;;;;8.45;78.63;98529.02;124878;1101;64527;-80
2021/05/01 07:22:00;;;;;;;31.95;28.60;;;;;;;8.44;78.81;98530.83;124783;1102;64246;-79
2021/05/01 07:24:27;;;;;;;32.77;29.50;;;;;;;8.47;78.85;98537.73;124879;1101;64355;-80
2021/05/01 07:26:55;;;;;;;31.17;27.80;;;;;;;8.48;78.63;98532.34;124778;1096;64326;-81
2021/05/01 07:29:27;;;;;;;30.53;27.33;;;;;;;8.51;78.79;98544.56;124753;1101;64329;-80
2021/05/01 07:31:56;;;;;;;29.47;26.47;;;;;;;8.51;78.40;98537.45;124720;1101;64425;-78
2021/05/01 07:34:27;;;;;;;29.80;26.80;;;;;;;8.58;78.76;98529.91;124794;1101;64339;-78
2021/05/01 07:36:58;;;;;;;29.70;26.70;;;;;;;8.67;78.55;98531.97;124809;1096;64322;-78
2021/05/01 07:39:26;;;;;;;29.70;26.80;;;;;;;8.78;78.43;98523.28;124777;1101;64338;-78
2021/05/01 07:41:57;;;;;;;30.93;27.83;;;;;;;8.89;78.48;98522.55;124727;1096;64466;-78
2021/05/01 07:44:26;;;;;;;31.77;28.70;;;;;;;8.97;77.82;98513.09;124783;1101;64486;-78
2021/05/01 07:46:53;;;;;;;32.80;29.60;;;;;;;9.12;78.19;98527.16;124777;1101;64358;-78
2021/05/01 07:49:20;;;;;;;32.33;28.87;;;;;;;9.18;77.95;98539.17;124760;1101;64253;-78
2021/05/01 07:51:48;;;;;;;31.77;28.77;;;;;;;9.18;77.79;98536.52;124879;1101;64330;-78
2021/05/01 07:54:14;;;;;;;31.60;28.50;;;;;;;9.21;77.89;98536.30;124739;1101;64265;-78
2021/05/01 07:56:41;;;;;;;37.90;34.20;;;;;;;9.26;77.75;98541.31;124822;1101;64486;-78
2021/05/01 07:59:08;;;;;;;31.17;28.03;;;;;;;9.22;77.67;98543.34;124818;1101;64339;-78
2021/05/01 08:01:35;;;;;;;30.63;27.70;;;;;;;9.21;77.87;98536.30;124857;1101;64310;-78
2021/05/01 08:04:02;;;;;;;34.23;30.83;;;;;;;9.22;78.01;98538.87;124866;1101;64326;-77
2021/05/01 08:06:29;;;;;;;40.73;36.33;;;;;;;9.22;78.08;98538.87;124780;1101;64275;-76
2021/05/01 08:08:56;;;;;;;41.60;37.40;;;;;;;9.22;77.91;98525.57;124788;1096;64431;-77
2021/05/01 08:11:24;;;;;;;42.23;37.93;;;;;;;9.27;77.76;98524.39;124844;1096;64316;-77
2021/05/01 08:13:50;;;;;;;43.73;39.23;;;;;;;9.30;77.94;98529.52;124771;1096;64303;-80
2021/05/01 08:16:17;;;;;;;38.93;34.83;;;;;;;9.37;77.83;98536.09;124774;1096;64342;-78
2021/05/01 08:18:44;;;;;;;34.77;31.07;;;;;;;9.45;77.78;98533.75;124700;1101;64421;-79
2021/05/01 08:21:11;;;;;;;32.23;28.83;;;;;;;9.38;77.13;98540.47;124762;1096;64431;-78
2021/05/01 08:23:38;;;;;;;33.67;30.13;;;;;;;9.29;77.04;98541.09;124758;1101;64379;-78
2021/05/01 08:26:06;;;;;;;32.07;28.80;;;;;;;9.26;77.34;98536.84;124786;1095;64326;-77
2021/05/01 08:28:33;;;;;;;31.17;28.17;;;;;;;9.34;77.44;98544.28;124753;1101;64326;-77
2021/05/01 08:31:00;;;;;;;30.60;27.10;;;;;;;9.42;77.49;98547.27;124758;1096;64383;-78
2021/05/01 08:33:27;;;;;;;32.67;29.37;;;;;;;9.51;77.52;98556.44;124726;1096;64303;-78
2021/05/01 08:35:55;;;;;;;31.37;28.17;;;;;;;9.49;77.22;98561.84;124751;1096;64301;-78
2021/05/01 08:38:22;;;;;;;32.73;29.37;;;;;;;9.47;77.06;98569.08;124750;1096;64333;-79
2021/05/01 08:40:49;;;;;;;36.55;32.75;;;;;;;9.53;76.95;98557.16;124749;1096;64335;-78
2021/05/01 08:43:16;;;;;;;35.00;31.40;;;;;;;9.66;76.86;98561.53;124761;1096;64410;-79
2021/05/01 08:45:47;;;;;;;32.87;29.70;;;;;;;9.66;76.38;98563.32;124733;1101;64460;-78
2021/05/01 08:48:15;;;;;;;31.83;28.03;;;;;;;9.78;76.51;98567.79;124761;1101;64332;-80
2021/05/01 08:50:50;;;;;;;32.17;29.00;;;;;;;9.84;76.34;98572.67;124798;1101;64311;-78
2021/05/01 08:53:17;;;;;;;35.20;31.50;;;;;;;9.88;76.23;98579.48;124765;1096;64355;-78
2021/05/01 08:55:44;;;;;;;36.60;32.90;;;;;;;9.93;76.56;98586.31;124752;1101;64422;-78
2021/05/01 08:58:12;;;;;;;33.47;30.00;;;;;;;9.91;76.03;98582.90;124789;1101;64456;-78
2021/05/01 09:00:42;;;;;;;34.50;31.03;;;;;;;9.95;76.43;98587.03;124806;1101;64756;-79
2021/05/01 09:03:11;;;;;;;34.60;31.10;;;;;;;9.98;76.59;98586.81;124763;1101;64329;-79
2021/05/01 09:05:40;;;;;;;33.73;30.13;;;;;;;9.93;76.13;98595.14;124889;1096;64278;-78
2021/05/01 09:08:09;;;;;;;34.77;31.27;;;;;;;9.91;76.01;98588.23;124751;1101;64328;-79
2021/05/01 09:10:39;;;;;;;35.40;31.80;;;;;;;9.89;76.40;98588.32;124794;1101;64312;-78
2021/05/01 09:13:12;;;;;;;34.57;31.07;;;;;;;9.90;76.33;98598.03;124787;1101;64334;-79
2021/05/01 09:15:42;;;;;;;34.77;30.80;;;;;;;9.83;76.27;98591.42;124811;1101;64689;-79
2021/05/01 09:18:09;;;;;;;33.83;30.33;;;;;;;9.78;76.26;98582.91;124746;1101;64277;-79
2021/05/01 09:20:36;;;;;;;34.57;31.13;;;;;;;9.79;76.48;98580.13;124755;1096;64331;-80
2021/05/01 09:23:05;;;;;;;37.35;33.35;;;;;;;9.86;76.47;98588.54;124776;1101;64342;-79
2021/05/01 09:25:50;;;;;;;37.97;33.80;;;;;;;9.91;76.32;98588.23;124745;1095;64339;-79
2021/05/01 09:28:18;;;;;;;34.60;31.10;;;;;;;9.96;75.93;98578.95;124820;1096;64267;-78
2021/05/01 09:31:06;;;;;;;34.43;30.73;;;;;;;10.00;75.71;98588.41;124787;1096;64333;-78
2021/05/01 09:33:44;;;;;;;36.63;32.87;;;;;;;10.16;75.66;98574.84;124813;1096;64444;-78
2021/05/01 09:36:19;;;;;;;35.07;31.27;;;;;;;10.38;75.62;98568.86;124759;1101;64406;-79
2021/05/01 09:38:47;;;;;;;33.97;30.80;;;;;;;10.59;75.77;98565.59;124738;1095;64338;-79
2021/05/01 09:41:25;;;;;;;37.77;33.90;;;;;;;10.83;75.58;98568.25;124787;1101;64326;-79
2021/05/01 09:44:11;;;;;;;37.70;33.83;;;;;;;11.16;74.99;98556.83;124801;1096;64380;-79
2021/05/01 09:46:38;;;;;;;39.67;35.57;;;;;;;11.68;74.58;98555.47;124719;1096;64448;-78
2021/05/01 09:49:10;;;;;;;38.40;34.60;;;;;;;12.24;73.36;98546.60;124785;1096;64425;-80
2021/05/01 09:51:51;;;;;;;36.47;32.83;;;;;;;12.90;72.19;98534.02;124863;1095;64256;-79
2021/05/01 09:54:26;;;;;;;37.03;33.47;;;;;;;13.51;71.84;98541.36;124751;1101;64329;-80
2021/05/01 09:56:55;;;;;;;34.57;31.37;;;;;;;13.99;69.52;98521.97;124865;1101;64262;-78
2021/05/01 09:59:42;;;;;;;33.45;30.38;;;;;;;14.47;69.25;98523.07;124715;1101;64421;-83
2021/05/01 10:02:16;;;;;;;35.20;31.90;;;;;;;14.88;68.93;98505.07;124782;1096;64572;-80
2021/05/01 10:05:04;;;;;;;35.13;31.83;;;;;;;14.90;67.77;98503.06;124886;1101;64361;-82
2021/05/01 10:07:34;;;;;;;36.43;33.23;;;;;;;14.82;67.94;98506.45;124778;1101;64339;-81
2021/05/01 10:10:03;;;;;;;37.20;33.70;;;;;;;14.49;66.79;98516.59;124826;1096;64330;-80
2021/05/01 10:12:35;;;;;;;36.77;33.37;;;;;;;14.07;66.67;98523.97;124875;1101;64381;-81
2021/05/01 10:15:16;;;;;;;40.70;36.60;;;;;;;13.72;67.17;98517.22;124761;1096;64259;-81
2021/05/01 10:17:47;;;;;;;39.80;35.90;;;;;;;13.49;66.24;98521.89;124733;1096;64278;-79
2021/05/01 10:20:15;;;;;;;39.25;35.45;;;;;;;13.31;66.83;98521.64;124763;1096;64368;-78
2021/05/01 10:22:50;;;;;;;41.80;37.85;;;;;;;13.27;67.42;98520.23;124786;1101;64333;-79
2021/05/01 10:25:17;;;;;;;43.33;39.03;;;;;;;13.14;67.13;98522.23;124751;1101;64361;-79
2021/05/01 10:27:46;;;;;;;41.47;37.23;;;;;;;12.99;67.04;98519.02;124744;1101;64337;-80
2021/05/01 10:33:32;;;;;;;40.63;36.40;;;;;;;12.98;67.39;98519.13;124812;1101;64333;-79
2021/05/01 10:36:10;;;;;;;42.97;38.67;;;;;;;13.03;67.39;98517.75;124760;1101;64326;-79
2021/05/01 10:38:39;;;;;;;40.87;36.97;;;;;;;13.05;67.51;98520.31;124729;1096;64334;-80
2021/05/01 10:41:08;;;;;;;41.00;36.87;;;;;;;13.06;68.18;98535.38;124761;1095;64342;-79
2021/05/01 10:43:39;;;;;;;41.40;37.20;;;;;;;12.91;67.17;98521.48;124762;1096;64337;-79
2021/05/01 10:46:11;;;;;;;40.80;36.90;;;;;;;12.82;67.35;98506.20;124760;1101;64301;-78
2021/05/01 10:48:48;;;;;;;40.90;36.87;;;;;;;12.85;67.49;98490.77;124781;1101;64383;-79
2021/05/01 10:51:19;;;;;;;40.10;36.33;;;;;;;12.70;67.32;98503.58;124761;1096;64349;-78
2021/05/01 10:53:49;;;;;;;38.47;34.77;;;;;;;12.56;67.39;98527.08;124769;1101;64442;-78
2021/05/01 10:56:27;;;;;;;38.57;34.40;;;;;;;12.60;68.00;98529.38;124758;1101;64345;-79
2021/05/01 10:58:54;;;;;;;41.50;37.60;;;;;;;12.80;68.21;98519.72;124824;1101;64332;-79
2021/05/01 11:01:27;;;;;;;43.47;39.37;;;;;;;12.89;68.20;98510.06;124833;1096;64329;-79
2021/05/01 11:03:59;;;;;;;43.57;39.37;;;;;;;12.83;67.69;98508.76;124752;1101;64483;-79
2021/05/01 11:06:27;;;;;;;43.97;39.60;;;;;;;12.72;67.37;98523.03;124561;1096;64336;-78
2021/05/01 11:09:08;;;;;;;49.10;44.20;;;;;;;12.77;67.76;98525.33;124781;1095;64333;-79
2021/05/01 11:11:41;;;;;;;48.90;44.10;;;;;;;12.92;67.72;98509.80;124803;1101;64247;-81
2021/05/01 11:14:19;;;;;;;47.83;43.10;;;;;;;13.06;67.42;98514.84;124875;1101;64265;-79
2021/05/01 11:16:53;;;;;;;49.20;44.30;;;;;;;13.10;67.04;98516.27;124761;1101;64343;-79
2021/05/01 11:19:22;;;;;;;49.27;44.47;;;;;;;13.26;67.19;98514.97;124778;1101;64503;-79
2021/05/01 11:21:49;;;;;;;47.70;43.10;;;;;;;13.50;66.89;98520.06;124724;1096;64336;-79
2021/05/01 11:24:16;;;;;;;48.23;43.43;;;;;;;13.85;66.40;98517.00;124751;1101;64339;-78
2021/05/01 11:26:46;;;;;;;45.40;40.80;;;;;;;14.14;65.96;98513.53;124760;1101;64278;-79